sensor_id;sensor_type;location;lat;lon;timestamp;P1;durP1;ratioP1;P2;durP2;ratioP2
53545;SDS011;39432;51.902;10.844;2023-10-31T00:02:21;12.82;;;9.95;;
53545;SDS011;39432;51.902;10.844;2023-10-31T00:05:22;18.67;;;12.30;;
53545;SDS011;39432;51.902;10.844;2023-10-31T00:08:25;23.17;;;13.57;;
53545;SDS011;39432;51.902;10.844;2023-10-31T00:11:49;19.00;;;12.35;;
53545;SDS011;39432;51.902;10.844;2023-10-31T00:14:19;16.42;;;11.10;;
53545;SDS011;39432;51.902;10.844;2023-10-31T00:16:57;21.73;;;13.50;;
53545;SDS011;39432;51.902;10.844;2023-10-31T00:19:27;23.92;;;15.02;;
53545;SDS011;39432;51.902;10.844;2023-10-31T00:25:16;14.07;;;9.68;;
53545;SDS011;39432;51.902;10.844;2023-10-31T00:28:16;21.55;;;13.30;;
53545;SDS011;39432;51.902;10.844;2023-10-31T00:31:05;25.95;;;15.07;;
53545;SDS011;39432;51.902;10.844;2023-10-31T00:33:55;13.45;;;9.63;;
53545;SDS011;39432;51.902;10.844;2023-10-31T00:36:38;12.88;;;9.32;;
53545;SDS011;39432;51.902;10.844;2023-10-31T00:39:09;20.48;;;12.45;;
53545;SDS011;39432;51.902;10.844;2023-10-31T00:41:39;12.10;;;8.48;;
53545;SDS011;39432;51.902;10.844;2023-10-31T00:44:33;14.20;;;9.02;;
53545;SDS011;39432;51.902;10.844;2023-10-31T00:47:04;13.45;;;9.60;;
53545;SDS011;39432;51.902;10.844;2023-10-31T00:49:52;10.48;;;7.88;;
53545;SDS011;39432;51.902;10.844;2023-10-31T00:55:21;14.68;;;9.48;;
53545;SDS011;39432;51.902;10.844;2023-10-31T00:57:52;15.32;;;9.38;;
53545;SDS011;39432;51.902;10.844;2023-10-31T01:10:57;2.17;;;1.08;;
53545;SDS011;39432;51.902;10.844;2023-10-31T01:14:04;3.17;;;1.17;;
53545;SDS011;39432;51.902;10.844;2023-10-31T01:17:20;2.75;;;1.10;;
53545;SDS011;39432;51.902;10.844;2023-10-31T01:19:53;2.40;;;1.30;;
53545;SDS011;39432;51.902;10.844;2023-10-31T01:22:23;2.75;;;1.23;;
53545;SDS011;39432;51.902;10.844;2023-10-31T01:24:53;4.75;;;1.20;;
53545;SDS011;39432;51.902;10.844;2023-10-31T01:27:24;2.60;;;1.38;;
53545;SDS011;39432;51.902;10.844;2023-10-31T01:29:54;1.70;;;1.10;;
53545;SDS011;39432;51.902;10.844;2023-10-31T01:32:27;4.82;;;1.10;;
53545;SDS011;39432;51.902;10.844;2023-10-31T01:34:57;2.28;;;1.05;;
53545;SDS011;39432;51.902;10.844;2023-10-31T01:37:28;2.35;;;0.95;;
53545;SDS011;39432;51.902;10.844;2023-10-31T01:39:58;2.30;;;1.10;;
53545;SDS011;39432;51.902;10.844;2023-10-31T01:42:42;2.35;;;1.23;;
53545;SDS011;39432;51.902;10.844;2023-10-31T01:45:16;2.83;;;1.50;;
53545;SDS011;39432;51.902;10.844;2023-10-31T01:48:25;2.35;;;1.33;;
53545;SDS011;39432;51.902;10.844;2023-10-31T01:51:20;3.20;;;1.10;;
53545;SDS011;39432;51.902;10.844;2023-10-31T01:54:35;1.48;;;0.77;;
53545;SDS011;39432;51.902;10.844;2023-10-31T01:57:36;2.53;;;1.20;;
53545;SDS011;39432;51.902;10.844;2023-10-31T02:00:46;2.13;;;1.15;;
53545;SDS011;39432;51.902;10.844;2023-10-31T02:07:11;2.30;;;1.02;;
53545;SDS011;39432;51.902;10.844;2023-10-31T02:11:39;1.15;;;0.75;;
53545;SDS011;39432;51.902;10.844;2023-10-31T02:14:39;1.88;;;0.70;;
53545;SDS011;39432;51.902;10.844;2023-10-31T02:17:29;1.92;;;0.80;;
53545;SDS011;39432;51.902;10.844;2023-10-31T02:20:54;1.13;;;0.63;;
53545;SDS011;39432;51.902;10.844;2023-10-31T02:24:04;1.52;;;0.85;;
53545;SDS011;39432;51.902;10.844;2023-10-31T02:26:48;2.45;;;1.10;;
53545;SDS011;39432;51.902;10.844;2023-10-31T02:29:50;2.95;;;1.10;;
53545;SDS011;39432;51.902;10.844;2023-10-31T02:32:50;3.53;;;0.95;;
53545;SDS011;39432;51.902;10.844;2023-10-31T02:35:25;1.13;;;0.70;;
53545;SDS011;39432;51.902;10.844;2023-10-31T02:38:41;4.53;;;0.98;;
53545;SDS011;39432;51.902;10.844;2023-10-31T02:41:44;1.00;;;0.60;;
53545;SDS011;39432;51.902;10.844;2023-10-31T02:45:10;0.90;;;0.70;;
53545;SDS011;39432;51.902;10.844;2023-10-31T02:48:11;0.80;;;0.50;;
53545;SDS011;39432;51.902;10.844;2023-10-31T02:50:41;0.88;;;0.60;;
53545;SDS011;39432;51.902;10.844;2023-10-31T02:53:11;0.73;;;0.50;;
53545;SDS011;39432;51.902;10.844;2023-10-31T02:55:42;0.82;;;0.50;;
53545;SDS011;39432;51.902;10.844;2023-10-31T02:58:14;1.25;;;0.60;;
53545;SDS011;39432;51.902;10.844;2023-10-31T03:00:48;0.85;;;0.50;;
53545;SDS011;39432;51.902;10.844;2023-10-31T03:04:02;0.68;;;0.50;;
53545;SDS011;39432;51.902;10.844;2023-10-31T03:07:15;0.70;;;0.40;;
53545;SDS011;39432;51.902;10.844;2023-10-31T03:10:15;0.68;;;0.50;;
53545;SDS011;39432;51.902;10.844;2023-10-31T03:12:57;1.10;;;0.60;;
53545;SDS011;39432;51.902;10.844;2023-10-31T03:15:48;0.68;;;0.47;;
53545;SDS011;39432;51.902;10.844;2023-10-31T03:18:50;2.22;;;0.50;;
53545;SDS011;39432;51.902;10.844;2023-10-31T03:22:13;1.75;;;0.47;;
53545;SDS011;39432;51.902;10.844;2023-10-31T03:24:58;0.55;;;0.38;;
53545;SDS011;39432;51.902;10.844;2023-10-31T03:28:02;2.88;;;0.40;;
53545;SDS011;39432;51.902;10.844;2023-10-31T03:31:34;1.40;;;0.50;;
53545;SDS011;39432;51.902;10.844;2023-10-31T03:34:31;2.67;;;1.35;;
53545;SDS011;39432;51.902;10.844;2023-10-31T03:38:45;4.22;;;1.40;;
53545;SDS011;39432;51.902;10.844;2023-10-31T03:41:38;1.52;;;0.88;;
53545;SDS011;39432;51.902;10.844;2023-10-31T03:44:34;1.35;;;0.70;;
53545;SDS011;39432;51.902;10.844;2023-10-31T03:51:33;1.80;;;0.60;;
53545;SDS011;39432;51.902;10.844;2023-10-31T03:54:25;1.42;;;0.60;;
53545;SDS011;39432;51.902;10.844;2023-10-31T03:57:24;1.23;;;0.80;;
53545;SDS011;39432;51.902;10.844;2023-10-31T04:00:29;1.73;;;0.57;;
53545;SDS011;39432;51.902;10.844;2023-10-31T04:04:12;1.00;;;0.50;;
53545;SDS011;39432;51.902;10.844;2023-10-31T04:07:06;0.77;;;0.55;;
53545;SDS011;39432;51.902;10.844;2023-10-31T04:09:38;2.93;;;0.53;;
53545;SDS011;39432;51.902;10.844;2023-10-31T04:12:08;0.80;;;0.38;;
53545;SDS011;39432;51.902;10.844;2023-10-31T04:14:40;0.88;;;0.40;;
53545;SDS011;39432;51.902;10.844;2023-10-31T04:17:30;1.00;;;0.60;;
53545;SDS011;39432;51.902;10.844;2023-10-31T04:20:03;1.50;;;0.60;;
53545;SDS011;39432;51.902;10.844;2023-10-31T04:22:34;0.77;;;0.50;;
53545;SDS011;39432;51.902;10.844;2023-10-31T04:25:04;1.33;;;0.70;;
53545;SDS011;39432;51.902;10.844;2023-10-31T04:27:35;1.27;;;0.70;;
53545;SDS011;39432;51.902;10.844;2023-10-31T04:30:06;1.20;;;0.77;;
53545;SDS011;39432;51.902;10.844;2023-10-31T04:32:40;1.05;;;0.82;;
53545;SDS011;39432;51.902;10.844;2023-10-31T04:35:13;3.97;;;0.77;;
53545;SDS011;39432;51.902;10.844;2023-10-31T04:37:44;1.90;;;1.30;;
53545;SDS011;39432;51.902;10.844;2023-10-31T04:40:14;1.27;;;0.80;;
53545;SDS011;39432;51.902;10.844;2023-10-31T04:42:46;1.00;;;0.90;;
53545;SDS011;39432;51.902;10.844;2023-10-31T04:45:16;1.77;;;1.00;;
53545;SDS011;39432;51.902;10.844;2023-10-31T04:47:47;2.10;;;0.98;;
53545;SDS011;39432;51.902;10.844;2023-10-31T04:50:20;1.52;;;0.80;;
53545;SDS011;39432;51.902;10.844;2023-10-31T04:52:50;2.50;;;1.20;;
53545;SDS011;39432;51.902;10.844;2023-10-31T04:55:20;0.82;;;0.80;;
53545;SDS011;39432;51.902;10.844;2023-10-31T04:57:50;1.98;;;0.85;;
53545;SDS011;39432;51.902;10.844;2023-10-31T05:00:21;1.35;;;1.00;;
53545;SDS011;39432;51.902;10.844;2023-10-31T05:02:51;1.27;;;0.75;;
53545;SDS011;39432;51.902;10.844;2023-10-31T05:05:25;1.08;;;0.90;;
53545;SDS011;39432;51.902;10.844;2023-10-31T05:07:56;0.82;;;0.60;;
53545;SDS011;39432;51.902;10.844;2023-10-31T05:10:26;1.38;;;0.60;;
53545;SDS011;39432;51.902;10.844;2023-10-31T05:12:56;0.77;;;0.35;;
53545;SDS011;39432;51.902;10.844;2023-10-31T05:15:26;0.32;;;0.30;;
53545;SDS011;39432;51.902;10.844;2023-10-31T05:17:58;0.68;;;0.20;;
53545;SDS011;39432;51.902;10.844;2023-10-31T05:20:30;2.85;;;0.50;;
53545;SDS011;39432;51.902;10.844;2023-10-31T05:23:01;1.02;;;0.40;;
53545;SDS011;39432;51.902;10.844;2023-10-31T05:25:31;0.50;;;0.30;;
53545;SDS011;39432;51.902;10.844;2023-10-31T05:28:01;0.40;;;0.30;;
53545;SDS011;39432;51.902;10.844;2023-10-31T05:30:32;1.42;;;0.50;;
53545;SDS011;39432;51.902;10.844;2023-10-31T05:33:02;1.05;;;0.30;;
53545;SDS011;39432;51.902;10.844;2023-10-31T05:35:36;0.98;;;0.50;;
53545;SDS011;39432;51.902;10.844;2023-10-31T05:38:06;0.30;;;0.30;;
53545;SDS011;39432;51.902;10.844;2023-10-31T05:40:36;0.30;;;0.30;;
53545;SDS011;39432;51.902;10.844;2023-10-31T05:43:06;1.10;;;0.55;;
53545;SDS011;39432;51.902;10.844;2023-10-31T05:49:32;3.08;;;0.40;;
53545;SDS011;39432;51.902;10.844;2023-10-31T05:52:43;2.33;;;0.43;;
53545;SDS011;39432;51.902;10.844;2023-10-31T05:55:39;1.75;;;0.52;;
53545;SDS011;39432;51.902;10.844;2023-10-31T06:02:20;0.82;;;0.57;;
53545;SDS011;39432;51.902;10.844;2023-10-31T06:05:54;0.75;;;0.52;;
53545;SDS011;39432;51.902;10.844;2023-10-31T06:13:14;4.20;;;0.70;;
53545;SDS011;39432;51.902;10.844;2023-10-31T06:16:07;1.27;;;0.50;;
53545;SDS011;39432;51.902;10.844;2023-10-31T06:19:23;0.65;;;0.50;;
53545;SDS011;39432;51.902;10.844;2023-10-31T06:22:27;1.45;;;0.60;;
53545;SDS011;39432;51.902;10.844;2023-10-31T06:25:20;1.08;;;0.47;;
53545;SDS011;39432;51.902;10.844;2023-10-31T06:28:26;2.08;;;0.60;;
53545;SDS011;39432;51.902;10.844;2023-10-31T06:35:33;2.13;;;0.82;;
53545;SDS011;39432;51.902;10.844;2023-10-31T06:38:38;2.38;;;0.70;;
53545;SDS011;39432;51.902;10.844;2023-10-31T06:41:28;0.68;;;0.50;;
53545;SDS011;39432;51.902;10.844;2023-10-31T06:44:37;0.47;;;0.43;;
53545;SDS011;39432;51.902;10.844;2023-10-31T06:47:51;0.60;;;0.50;;
53545;SDS011;39432;51.902;10.844;2023-10-31T06:51:08;2.05;;;0.47;;
53545;SDS011;39432;51.902;10.844;2023-10-31T07:03:41;1.08;;;0.70;;
53545;SDS011;39432;51.902;10.844;2023-10-31T07:06:35;2.10;;;0.80;;
53545;SDS011;39432;51.902;10.844;2023-10-31T07:09:33;1.33;;;0.80;;
53545;SDS011;39432;51.902;10.844;2023-10-31T07:12:32;0.98;;;0.77;;
53545;SDS011;39432;51.902;10.844;2023-10-31T07:15:47;3.92;;;0.95;;
53545;SDS011;39432;51.902;10.844;2023-10-31T07:18:36;1.00;;;0.70;;
53545;SDS011;39432;51.902;10.844;2023-10-31T07:21:40;1.60;;;0.70;;
53545;SDS011;39432;51.902;10.844;2023-10-31T07:24:38;1.88;;;0.68;;
53545;SDS011;39432;51.902;10.844;2023-10-31T07:28:05;2.00;;;0.80;;
53545;SDS011;39432;51.902;10.844;2023-10-31T07:31:17;1.42;;;0.85;;
53545;SDS011;39432;51.902;10.844;2023-10-31T07:34:13;3.50;;;0.70;;
53545;SDS011;39432;51.902;10.844;2023-10-31T07:36:56;1.23;;;0.63;;
53545;SDS011;39432;51.902;10.844;2023-10-31T07:43:31;2.55;;;1.02;;
53545;SDS011;39432;51.902;10.844;2023-10-31T07:46:19;6.85;;;1.00;;
53545;SDS011;39432;51.902;10.844;2023-10-31T07:49:37;2.08;;;0.70;;
53545;SDS011;39432;51.902;10.844;2023-10-31T08:01:14;2.80;;;0.70;;
53545;SDS011;39432;51.902;10.844;2023-10-31T08:04:27;15.40;;;1.00;;
53545;SDS011;39432;51.902;10.844;2023-10-31T08:07:51;1.10;;;0.75;;
53545;SDS011;39432;51.902;10.844;2023-10-31T08:10:46;1.45;;;0.50;;
53545;SDS011;39432;51.902;10.844;2023-10-31T08:13:54;4.22;;;0.73;;
53545;SDS011;39432;51.902;10.844;2023-10-31T08:16:52;1.95;;;0.60;;
53545;SDS011;39432;51.902;10.844;2023-10-31T08:19:31;4.05;;;0.80;;
53545;SDS011;39432;51.902;10.844;2023-10-31T08:22:34;2.67;;;0.75;;
53545;SDS011;39432;51.902;10.844;2023-10-31T08:25:22;1.23;;;0.70;;
53545;SDS011;39432;51.902;10.844;2023-10-31T08:28:21;2.05;;;0.85;;
53545;SDS011;39432;51.902;10.844;2023-10-31T08:31:58;1.42;;;0.73;;
53545;SDS011;39432;51.902;10.844;2023-10-31T08:35:10;0.90;;;0.60;;
53545;SDS011;39432;51.902;10.844;2023-10-31T08:38:07;0.75;;;0.57;;
53545;SDS011;39432;51.902;10.844;2023-10-31T08:41:23;2.30;;;0.60;;
53545;SDS011;39432;51.902;10.844;2023-10-31T08:44:20;3.72;;;0.70;;
53545;SDS011;39432;51.902;10.844;2023-10-31T08:51:04;1.60;;;0.55;;
53545;SDS011;39432;51.902;10.844;2023-10-31T08:54:14;32.72;;;3.28;;
53545;SDS011;39432;51.902;10.844;2023-10-31T08:56:53;0.70;;;0.45;;
53545;SDS011;39432;51.902;10.844;2023-10-31T08:59:45;0.40;;;0.38;;
53545;SDS011;39432;51.902;10.844;2023-10-31T09:02:39;1.38;;;0.50;;
53545;SDS011;39432;51.902;10.844;2023-10-31T09:05:58;0.73;;;0.52;;
53545;SDS011;39432;51.902;10.844;2023-10-31T09:08:56;2.85;;;0.70;;
53545;SDS011;39432;51.902;10.844;2023-10-31T09:15:43;2.33;;;0.98;;
53545;SDS011;39432;51.902;10.844;2023-10-31T09:18:52;2.53;;;1.20;;
53545;SDS011;39432;51.902;10.844;2023-10-31T09:21:38;2.15;;;0.77;;
53545;SDS011;39432;51.902;10.844;2023-10-31T09:24:48;4.72;;;0.80;;
53545;SDS011;39432;51.902;10.844;2023-10-31T09:28:13;4.00;;;0.70;;
53545;SDS011;39432;51.902;10.844;2023-10-31T09:31:11;0.73;;;0.55;;
53545;SDS011;39432;51.902;10.844;2023-10-31T09:34:01;1.55;;;1.00;;
53545;SDS011;39432;51.902;10.844;2023-10-31T09:36:58;2.83;;;0.80;;
53545;SDS011;39432;51.902;10.844;2023-10-31T09:43:43;0.75;;;0.60;;
53545;SDS011;39432;51.902;10.844;2023-10-31T09:52:58;2.22;;;0.57;;
53545;SDS011;39432;51.902;10.844;2023-10-31T09:56:14;0.80;;;0.40;;
53545;SDS011;39432;51.902;10.844;2023-10-31T09:59:04;1.20;;;0.43;;
53545;SDS011;39432;51.902;10.844;2023-10-31T10:02:13;0.47;;;0.40;;
53545;SDS011;39432;51.902;10.844;2023-10-31T10:05:02;5.93;;;0.60;;
53545;SDS011;39432;51.902;10.844;2023-10-31T10:11:19;4.18;;;0.40;;
53545;SDS011;39432;51.902;10.844;2023-10-31T10:18:29;2.50;;;0.50;;
53545;SDS011;39432;51.902;10.844;2023-10-31T10:24:55;0.80;;;0.40;;
53545;SDS011;39432;51.902;10.844;2023-10-31T10:27:45;1.08;;;0.43;;
53545;SDS011;39432;51.902;10.844;2023-10-31T10:30:43;0.90;;;0.50;;
53545;SDS011;39432;51.902;10.844;2023-10-31T10:34:12;2.97;;;0.40;;
53545;SDS011;39432;51.902;10.844;2023-10-31T10:37:19;0.50;;;0.40;;
53545;SDS011;39432;51.902;10.844;2023-10-31T10:40:30;0.70;;;0.50;;
53545;SDS011;39432;51.902;10.844;2023-10-31T10:44:10;0.30;;;0.30;;
53545;SDS011;39432;51.902;10.844;2023-10-31T10:50:20;0.50;;;0.40;;
53545;SDS011;39432;51.902;10.844;2023-10-31T10:53:34;0.88;;;0.60;;
53545;SDS011;39432;51.902;10.844;2023-10-31T10:57:08;2.13;;;0.30;;
53545;SDS011;39432;51.902;10.844;2023-10-31T11:00:19;12.48;;;0.73;;
53545;SDS011;39432;51.902;10.844;2023-10-31T11:14:25;0.30;;;0.15;;
53545;SDS011;39432;51.902;10.844;2023-10-31T11:18:01;0.88;;;0.30;;
53545;SDS011;39432;51.902;10.844;2023-10-31T11:21:08;0.75;;;0.30;;
53545;SDS011;39432;51.902;10.844;2023-10-31T11:28:10;0.98;;;0.40;;
53545;SDS011;39432;51.902;10.844;2023-10-31T11:31:20;1.60;;;0.40;;
53545;SDS011;39432;51.902;10.844;2023-10-31T11:34:51;5.85;;;0.50;;
53545;SDS011;39432;51.902;10.844;2023-10-31T11:38:03;0.80;;;0.35;;
53545;SDS011;39432;51.902;10.844;2023-10-31T11:41:11;1.00;;;0.40;;
53545;SDS011;39432;51.902;10.844;2023-10-31T11:44:04;1.38;;;0.60;;
53545;SDS011;39432;51.902;10.844;2023-10-31T11:47:15;1.08;;;0.65;;
53545;SDS011;39432;51.902;10.844;2023-10-31T11:50:21;2.45;;;0.70;;
53545;SDS011;39432;51.902;10.844;2023-10-31T11:53:56;1.00;;;0.50;;
53545;SDS011;39432;51.902;10.844;2023-10-31T11:57:05;1.55;;;0.73;;
53545;SDS011;39432;51.902;10.844;2023-10-31T12:00:00;1.33;;;0.70;;
53545;SDS011;39432;51.902;10.844;2023-10-31T12:03:09;2.42;;;0.68;;
53545;SDS011;39432;51.902;10.844;2023-10-31T12:06:20;1.25;;;0.70;;
53545;SDS011;39432;51.902;10.844;2023-10-31T12:10:05;2.17;;;0.60;;
53545;SDS011;39432;51.902;10.844;2023-10-31T12:13:14;1.27;;;0.70;;
53545;SDS011;39432;51.902;10.844;2023-10-31T12:20:53;1.50;;;0.80;;
53545;SDS011;39432;51.902;10.844;2023-10-31T12:24:16;1.88;;;1.00;;
53545;SDS011;39432;51.902;10.844;2023-10-31T12:35:20;2.35;;;0.88;;
53545;SDS011;39432;51.902;10.844;2023-10-31T12:38:42;1.20;;;0.70;;
53545;SDS011;39432;51.902;10.844;2023-10-31T12:45:08;1.90;;;0.80;;
53545;SDS011;39432;51.902;10.844;2023-10-31T12:48:23;1.42;;;0.82;;
53545;SDS011;39432;51.902;10.844;2023-10-31T12:51:41;1.33;;;0.70;;
53545;SDS011;39432;51.902;10.844;2023-10-31T12:59:10;1.77;;;0.88;;
53545;SDS011;39432;51.902;10.844;2023-10-31T13:02:36;2.88;;;0.77;;
53545;SDS011;39432;51.902;10.844;2023-10-31T13:08:49;1.33;;;0.73;;
53545;SDS011;39432;51.902;10.844;2023-10-31T13:11:47;1.42;;;0.90;;
53545;SDS011;39432;51.902;10.844;2023-10-31T13:14:58;2.03;;;0.63;;
53545;SDS011;39432;51.902;10.844;2023-10-31T13:18:15;2.28;;;0.90;;
53545;SDS011;39432;51.902;10.844;2023-10-31T13:21:38;0.93;;;0.75;;
53545;SDS011;39432;51.902;10.844;2023-10-31T13:25:06;3.05;;;0.73;;
53545;SDS011;39432;51.902;10.844;2023-10-31T13:35:35;1.05;;;0.70;;
53545;SDS011;39432;51.902;10.844;2023-10-31T13:42:06;1.40;;;0.80;;
53545;SDS011;39432;51.902;10.844;2023-10-31T13:45:27;1.42;;;0.73;;
53545;SDS011;39432;51.902;10.844;2023-10-31T13:57:07;3.28;;;0.80;;
53545;SDS011;39432;51.902;10.844;2023-10-31T14:31:28;2.38;;;0.80;;
53545;SDS011;39432;51.902;10.844;2023-10-31T14:39:00;1.60;;;0.90;;
53545;SDS011;39432;51.902;10.844;2023-10-31T14:46:03;2.92;;;1.00;;
53545;SDS011;39432;51.902;10.844;2023-10-31T14:48:50;1.52;;;0.80;;
53545;SDS011;39432;51.902;10.844;2023-10-31T14:56:13;1.58;;;0.80;;
53545;SDS011;39432;51.902;10.844;2023-10-31T14:59:43;1.33;;;1.00;;
53545;SDS011;39432;51.902;10.844;2023-10-31T15:02:40;2.85;;;0.90;;
53545;SDS011;39432;51.902;10.844;2023-10-31T15:09:50;2.80;;;1.00;;
53545;SDS011;39432;51.902;10.844;2023-10-31T15:12:57;3.10;;;1.10;;
53545;SDS011;39432;51.902;10.844;2023-10-31T15:16:12;2.25;;;1.27;;
53545;SDS011;39432;51.902;10.844;2023-10-31T15:19:28;2.33;;;1.30;;
53545;SDS011;39432;51.902;10.844;2023-10-31T15:22:49;3.58;;;1.20;;
53545;SDS011;39432;51.902;10.844;2023-10-31T15:28:48;2.72;;;1.20;;
53545;SDS011;39432;51.902;10.844;2023-10-31T15:35:10;3.10;;;1.50;;
53545;SDS011;39432;51.902;10.844;2023-10-31T15:38:23;1.90;;;1.40;;
53545;SDS011;39432;51.902;10.844;2023-10-31T15:52:08;4.55;;;2.30;;
53545;SDS011;39432;51.902;10.844;2023-10-31T16:03:08;7.32;;;2.10;;
53545;SDS011;39432;51.902;10.844;2023-10-31T16:06:10;2.78;;;1.90;;
53545;SDS011;39432;51.902;10.844;2023-10-31T16:13:33;3.40;;;1.75;;
53545;SDS011;39432;51.902;10.844;2023-10-31T16:35:41;3.13;;;1.80;;
53545;SDS011;39432;51.902;10.844;2023-10-31T16:38:57;2.97;;;1.45;;
53545;SDS011;39432;51.902;10.844;2023-10-31T16:45:44;3.70;;;1.55;;
53545;SDS011;39432;51.902;10.844;2023-10-31T16:48:43;3.83;;;1.88;;
53545;SDS011;39432;51.902;10.844;2023-10-31T16:58:05;4.32;;;1.85;;
53545;SDS011;39432;51.902;10.844;2023-10-31T17:01:12;9.60;;;2.22;;
53545;SDS011;39432;51.902;10.844;2023-10-31T17:04:32;4.80;;;2.03;;
53545;SDS011;39432;51.902;10.844;2023-10-31T17:15:44;5.43;;;1.85;;
53545;SDS011;39432;51.902;10.844;2023-10-31T17:44:08;7.22;;;2.30;;
53545;SDS011;39432;51.902;10.844;2023-10-31T18:33:07;12.18;;;6.30;;
53545;SDS011;39432;51.902;10.844;2023-10-31T19:21:25;5.88;;;2.20;;
53545;SDS011;39432;51.902;10.844;2023-10-31T21:54:03;12.82;;;7.30;;
53545;SDS011;39432;51.902;10.844;2023-10-31T21:57:29;7.38;;;3.65;;
53545;SDS011;39432;51.902;10.844;2023-10-31T22:40:27;1.42;;;0.52;;
